Time;durP1;ratioP1;P1;durP2;ratioP2;P2;SDS_P1;SDS_P2;PMS_P1;PMS_P2;Temp;Humidity;BMP_temperature;BMP_pressure;BME280_temperature;BME280_humidity;BME280_pressure;Samples;Min_cycle;Max_cycle;Signal;HPM_P1;HPM_P2
2022/10/25 00:00:14;;;;;;;3.57;2.40;;;;;;;11.42;100.00;100516.88;5062423;28;20194;-71
2022/10/25 00:02:40;;;;;;;9.37;3.33;;;;;;;11.41;100.00;100523.81;5060546;28;20217;-71
2022/10/25 00:05:13;;;;;;;5.20;2.90;;;;;;;11.41;100.00;100517.75;5054159;28;20357;-71
2022/10/25 00:07:40;;;;;;;3.80;2.87;;;;;;;11.39;100.00;100516.97;5061017;28;20212;-71
2022/10/25 00:10:07;;;;;;;5.43;2.80;;;;;;;11.37;100.00;100523.06;5060407;28;20202;-72
2022/10/25 00:12:34;;;;;;;3.43;2.80;;;;;;;11.37;100.00;100517.00;5060939;28;20206;-71
2022/10/25 00:15:02;;;;;;;5.20;3.00;;;;;;;11.37;100.00;100517.84;5060367;28;20210;-71
2022/10/25 00:17:28;;;;;;;3.87;2.97;;;;;;;11.35;100.00;100521.41;5060069;28;20286;-71
2022/10/25 00:19:54;;;;;;;4.93;2.90;;;;;;;11.33;100.00;100521.47;5059749;28;20964;-71
2022/10/25 00:22:22;;;;;;;4.40;2.70;;;;;;;11.33;100.00;100524.06;5064041;28;20217;-71
2022/10/25 00:24:48;;;;;;;3.30;2.80;;;;;;;11.36;100.00;100520.50;5061027;28;20233;-71
2022/10/25 00:27:15;;;;;;;4.63;2.43;;;;;;;11.42;100.00;100522.09;5057390;28;20208;-71
2022/10/25 00:29:41;;;;;;;5.73;2.40;;;;;;;11.37;100.00;100520.47;5048837;28;20221;-71
2022/10/25 00:32:07;;;;;;;3.07;2.67;;;;;;;11.37;100.00;100528.28;5060830;28;20663;-71
2022/10/25 00:34:34;;;;;;;4.07;2.70;;;;;;;11.32;100.00;100531.94;5063729;28;20226;-71
2022/10/25 00:37:00;;;;;;;3.63;2.07;;;;;;;11.36;100.00;100533.56;5058243;28;20212;-71
2022/10/25 00:39:28;;;;;;;4.00;2.67;;;;;;;11.34;100.00;100532.75;5062797;28;20437;-71
2022/10/25 00:41:55;;;;;;;6.20;2.90;;;;;;;11.33;100.00;100529.28;5064328;28;20252;-71
2022/10/25 00:44:52;;;;;;;7.03;2.70;;;;;;;11.35;100.00;100529.25;5064015;28;21883;-71
2022/10/25 00:47:45;;;;;;;5.80;2.73;;;;;;;11.41;100.00;100529.03;5060143;28;20854;-71
2022/10/25 00:50:19;;;;;;;4.60;2.73;;;;;;;11.41;100.00;100541.25;5057988;28;20236;-71
2022/10/25 00:52:48;;;;;;;4.23;2.80;;;;;;;11.42;100.00;100545.59;5057554;28;20194;-71
2022/10/25 00:55:20;;;;;;;5.07;2.77;;;;;;;11.41;100.00;100538.63;5061435;28;20221;-71
2022/10/25 00:57:51;;;;;;;3.70;2.50;;;;;;;11.40;100.00;100539.53;5046359;28;20573;-71
2022/10/25 01:00:18;;;;;;;3.00;2.40;;;;;;;11.41;100.00;100547.31;5063556;28;20219;-71
2022/10/25 01:02:44;;;;;;;6.60;2.90;;;;;;;11.46;100.00;100549.81;5066177;28;20209;-71
2022/10/25 01:05:11;;;;;;;6.33;2.70;;;;;;;11.49;100.00;100537.50;5047826;28;20218;-71
2022/10/25 01:07:37;;;;;;;5.93;2.50;;;;;;;11.55;100.00;100550.34;5056057;28;20554;-71
2022/10/25 01:10:05;;;;;;;5.93;2.87;;;;;;;11.59;100.00;100548.53;5061909;28;20269;-71
2022/10/25 01:12:33;;;;;;;5.07;3.00;;;;;;;11.61;100.00;100540.63;5069559;28;20603;-72
2022/10/25 01:15:00;;;;;;;4.97;3.03;;;;;;;11.64;100.00;100543.13;5054845;28;20291;-71
2022/10/25 01:17:35;;;;;;;4.60;2.73;;;;;;;11.67;100.00;100541.28;5065668;28;20738;-71
2022/10/25 01:20:27;;;;;;;4.60;2.67;;;;;;;11.68;100.00;100532.56;5060009;28;20221;-71
2022/10/25 01:23:05;;;;;;;3.07;2.53;;;;;;;11.72;100.00;100533.31;5037481;28;20214;-71
2022/10/25 01:25:53;;;;;;;8.30;2.60;;;;;;;11.74;100.00;100534.09;5062552;28;20219;-71
2022/10/25 01:28:27;;;;;;;5.47;2.50;;;;;;;11.79;100.00;100539.19;5064558;28;20655;-71
2022/10/25 01:31:14;;;;;;;3.13;2.33;;;;;;;11.81;100.00;100530.41;5053969;28;20198;-71
2022/10/25 01:33:46;;;;;;;3.73;2.40;;;;;;;11.80;100.00;100531.28;5063404;28;20196;-71
2022/10/25 01:36:20;;;;;;;5.97;2.73;;;;;;;11.83;100.00;100536.41;5049299;28;20582;-71
2022/10/25 01:38:50;;;;;;;4.93;2.10;;;;;;;11.81;100.00;100533.00;5061006;28;20513;-71
2022/10/25 01:41:23;;;;;;;2.93;2.30;;;;;;;11.80;100.00;100531.28;5066694;28;20194;-71
2022/10/25 01:43:59;;;;;;;6.77;2.47;;;;;;;11.80;100.00;100531.28;5061168;28;20234;-72
2022/10/25 01:46:32;;;;;;;4.17;2.47;;;;;;;11.79;100.00;100526.97;5058169;28;20218;-71
2022/10/25 01:49:02;;;;;;;3.73;2.30;;;;;;;11.78;100.00;100527.03;5063144;28;21071;-71
2022/10/25 01:51:29;;;;;;;2.83;2.20;;;;;;;11.75;100.00;100528.00;5057892;28;20286;-71
2022/10/25 01:53:55;;;;;;;4.77;2.37;;;;;;;11.76;100.00;100529.69;5062200;28;20944;-71
2022/10/25 01:56:28;;;;;;;3.13;2.20;;;;;;;11.73;100.00;100535.00;5061167;28;20610;-71
2022/10/25 01:59:18;;;;;;;7.73;2.60;;;;;;;11.73;100.00;100532.38;5060245;28;20202;-71
2022/10/25 02:01:59;;;;;;;2.60;2.13;;;;;;;11.71;100.00;100528.97;5067590;28;20197;-71
2022/10/25 02:04:38;;;;;;;3.33;2.13;;;;;;;11.67;100.00;100527.38;5068057;28;20218;-71
2022/10/25 02:07:10;;;;;;;3.50;2.10;;;;;;;11.62;100.00;100529.28;5054628;28;20451;-71
2022/10/25 02:09:44;;;;;;;3.30;2.13;;;;;;;11.58;100.00;100525.06;5052215;28;20202;-71
2022/10/25 02:12:16;;;;;;;4.70;2.20;;;;;;;11.54;100.00;100530.38;5059160;28;20288;-71
2022/10/25 02:14:52;;;;;;;6.77;2.23;;;;;;;11.56;100.00;100536.41;5052995;28;20978;-71
2022/10/25 02:17:25;;;;;;;3.17;2.03;;;;;;;11.58;100.00;100531.13;5066145;28;20662;-71
2022/10/25 02:19:54;;;;;;;3.07;1.80;;;;;;;11.63;100.00;100534.47;5045766;28;20217;-72
2022/10/25 02:22:25;;;;;;;2.67;2.07;;;;;;;11.64;100.00;100532.69;5058737;28;20719;-71
2022/10/25 02:24:53;;;;;;;3.00;2.50;;;;;;;11.67;100.00;100532.59;5061130;28;20222;-71
2022/10/25 02:27:22;;;;;;;2.90;2.23;;;;;;;11.69;100.00;100530.78;5056007;28;20204;-71
2022/10/25 02:29:49;;;;;;;5.53;2.50;;;;;;;11.70;100.00;100525.53;5060309;28;20589;-71
2022/10/25 02:32:16;;;;;;;5.40;2.10;;;;;;;11.77;100.00;100522.69;5043168;28;20190;-71
2022/10/25 02:34:47;;;;;;;5.73;2.13;;;;;;;11.78;100.00;100524.41;5047873;28;20232;-71
2022/10/25 02:37:14;;;;;;;6.83;2.40;;;;;;;11.79;100.00;100534.81;5064724;28;20198;-71
2022/10/25 02:39:42;;;;;;;2.60;2.03;;;;;;;11.83;100.00;100530.34;5062993;28;20685;-71
2022/10/25 02:42:08;;;;;;;3.87;2.10;;;;;;;11.88;100.00;100528.44;5060816;28;20210;-71
2022/10/25 02:44:34;;;;;;;2.10;1.83;;;;;;;11.90;100.00;100535.34;5057714;28;20258;-71
2022/10/25 02:47:01;;;;;;;3.57;2.30;;;;;;;11.98;100.00;100531.63;5062508;28;20620;-71
2022/10/25 02:49:27;;;;;;;3.67;2.13;;;;;;;11.97;100.00;100533.38;5065120;28;20422;-71
2022/10/25 02:51:55;;;;;;;2.53;1.90;;;;;;;12.00;100.00;100527.22;5058923;28;20197;-72
2022/10/25 02:54:22;;;;;;;3.10;1.90;;;;;;;11.99;100.00;100533.34;5077503;22;20223;-70
2022/10/25 02:56:51;;;;;;;1.77;1.63;;;;;;;12.04;100.00;100537.50;5067340;28;20238;-71
2022/10/25 02:59:18;;;;;;;3.93;2.23;;;;;;;12.03;100.00;100533.19;5066865;28;20199;-70
2022/10/25 03:01:45;;;;;;;2.33;1.80;;;;;;;12.03;100.00;100540.16;5066639;28;20209;-71
2022/10/25 03:04:11;;;;;;;3.07;1.87;;;;;;;12.04;100.00;100537.50;5059761;28;20246;-70
2022/10/25 03:06:38;;;;;;;3.93;1.90;;;;;;;12.04;100.00;100542.72;5059819;28;21043;-69
2022/10/25 03:09:08;;;;;;;2.37;1.90;;;;;;;11.99;100.00;100543.78;5057782;28;20648;-72
2022/10/25 03:11:34;;;;;;;1.97;1.77;;;;;;;11.96;100.00;100543.88;5051742;28;20205;-70
2022/10/25 03:14:00;;;;;;;2.13;1.90;;;;;;;11.89;100.00;100538.84;5064051;28;20222;-70
2022/10/25 03:16:28;;;;;;;2.17;1.70;;;;;;;11.85;100.00;100549.44;5056892;28;20192;-70
2022/10/25 03:18:57;;;;;;;4.20;1.80;;;;;;;11.78;100.00;100546.16;5058459;28;20438;-70
2022/10/25 03:21:23;;;;;;;4.27;2.00;;;;;;;11.71;100.00;100544.66;5054795;28;20202;-69
2022/10/25 03:23:50;;;;;;;2.10;1.60;;;;;;;11.65;100.00;100550.09;5063289;28;20840;-70
2022/10/25 03:26:17;;;;;;;1.70;1.40;;;;;;;11.58;100.00;100552.03;5063840;28;20724;-69
2022/10/25 03:28:44;;;;;;;2.53;1.80;;;;;;;11.51;100.00;100546.13;5058974;28;20205;-70
2022/10/25 03:31:11;;;;;;;3.07;1.90;;;;;;;11.47;100.00;100554.97;5061348;28;20198;-70
2022/10/25 03:33:38;;;;;;;2.93;1.70;;;;;;;11.44;100.00;100554.22;5064110;28;20214;-70
2022/10/25 03:36:05;;;;;;;3.37;1.87;;;;;;;11.41;100.00;100549.94;5059677;28;20198;-70
2022/10/25 03:38:31;;;;;;;2.33;1.80;;;;;;;11.44;100.00;100554.22;5066177;28;20194;-70
2022/10/25 03:40:58;;;;;;;4.13;2.10;;;;;;;11.40;100.00;100561.28;5063216;28;20206;-70
2022/10/25 03:43:26;;;;;;;2.73;1.63;;;;;;;11.38;100.00;100563.09;5064300;28;20253;-70
2022/10/25 03:45:52;;;;;;;5.70;2.00;;;;;;;11.40;100.00;100574.34;5062341;28;20608;-70
2022/10/25 03:48:18;;;;;;;3.90;1.80;;;;;;;11.40;100.00;100574.34;5060292;28;20580;-71
2022/10/25 03:50:45;;;;;;;5.97;1.90;;;;;;;11.41;100.00;100569.97;5056574;28;20199;-71
2022/10/25 03:53:12;;;;;;;2.47;1.83;;;;;;;11.37;100.00;100574.44;5064001;28;20260;-70
2022/10/25 03:55:38;;;;;;;3.07;1.90;;;;;;;11.33;100.00;100576.28;5059293;28;20574;-71
2022/10/25 03:58:04;;;;;;;5.43;2.03;;;;;;;11.28;100.00;100578.16;5066337;28;20583;-69
2022/10/25 04:00:32;;;;;;;3.93;2.23;;;;;;;11.23;100.00;100580.06;5065997;28;20580;-71
2022/10/25 04:03:02;;;;;;;2.30;1.70;;;;;;;11.21;100.00;100581.88;5060525;28;20547;-71
2022/10/25 04:05:29;;;;;;;4.23;1.67;;;;;;;11.21;100.00;100578.41;5063324;28;20319;-70
2022/10/25 04:07:55;;;;;;;2.17;1.70;;;;;;;11.20;100.00;100592.34;5062600;28;20213;-69
2022/10/25 04:10:22;;;;;;;2.03;1.67;;;;;;;11.12;100.00;100588.22;5060508;28;20207;-70
2022/10/25 04:12:48;;;;;;;4.53;2.17;;;;;;;11.06;100.00;100584.91;5061585;28;20317;-70
2022/10/25 04:15:15;;;;;;;3.63;1.83;;;;;;;11.11;100.00;100593.47;5064371;28;20685;-70
2022/10/25 04:17:43;;;;;;;2.63;1.90;;;;;;;11.13;100.00;100592.53;5065079;28;20205;-70
2022/10/25 04:20:10;;;;;;;4.27;1.97;;;;;;;11.08;100.00;100586.59;5063599;28;20299;-71
2022/10/25 04:22:37;;;;;;;2.60;1.87;;;;;;;11.05;100.00;100589.28;5063865;28;20666;-71
2022/10/25 04:25:04;;;;;;;3.50;1.87;;;;;;;10.97;100.00;100584.25;5061696;28;20206;-70
2022/10/25 04:27:30;;;;;;;5.67;2.03;;;;;;;10.89;100.00;100586.25;5066387;28;20720;-70
2022/10/25 04:29:56;;;;;;;5.13;2.23;;;;;;;10.84;100.00;100584.69;5058185;28;20206;-71
2022/10/25 04:32:23;;;;;;;5.27;2.00;;;;;;;10.78;100.00;100580.47;5056219;28;20705;-70
2022/10/25 04:34:51;;;;;;;2.93;1.90;;;;;;;10.72;100.00;100586.72;5061057;28;20566;-71
2022/10/25 04:37:17;;;;;;;2.70;2.17;;;;;;;10.63;100.00;100589.56;5064334;28;20193;-70
2022/10/25 04:39:44;;;;;;;7.47;2.10;;;;;;;10.56;100.00;100580.22;5058933;28;20195;-70
2022/10/25 04:42:10;;;;;;;6.27;2.37;;;;;;;10.50;100.00;100590.78;5060798;28;20202;-69
2022/10/25 04:44:36;;;;;;;3.83;1.97;;;;;;;10.44;100.00;100586.59;5063057;28;20473;-70
2022/10/25 04:47:03;;;;;;;2.43;2.00;;;;;;;10.39;100.00;100594.53;5061207;28;20210;-70
2022/10/25 04:49:29;;;;;;;3.43;2.30;;;;;;;10.33;100.00;100596.44;5059187;28;20220;-70
2022/10/25 04:51:57;;;;;;;5.27;2.43;;;;;;;10.26;100.00;100592.25;5069175;28;20223;-71
2022/10/25 04:54:24;;;;;;;2.77;2.13;;;;;;;10.22;100.00;100596.69;5063709;28;20221;-70
2022/10/25 04:56:50;;;;;;;2.77;2.17;;;;;;;10.20;100.00;100601.06;5064456;28;20296;-71
2022/10/25 04:59:16;;;;;;;5.37;1.93;;;;;;;10.16;100.00;100596.84;5062296;28;20228;-70
2022/10/25 05:01:43;;;;;;;5.43;2.30;;;;;;;10.11;100.00;100603.91;5062470;28;20496;-71
2022/10/25 05:04:09;;;;;;;2.57;2.33;;;;;;;10.15;100.00;100600.31;5068117;28;20299;-70
2022/10/25 05:06:35;;;;;;;2.57;1.90;;;;;;;10.13;100.00;100599.50;5054273;28;20217;-71
2022/10/25 05:09:04;;;;;;;4.93;2.30;;;;;;;10.14;100.00;100603.84;5054563;28;20204;-71
2022/10/25 05:11:31;;;;;;;3.60;2.37;;;;;;;10.15;100.00;100608.13;5059427;28;20215;-70
2022/10/25 05:13:57;;;;;;;2.97;2.60;;;;;;;10.17;100.00;100608.97;5062095;28;20228;-71
2022/10/25 05:16:24;;;;;;;5.07;2.43;;;;;;;10.14;100.00;100615.09;5054203;28;20653;-71
2022/10/25 05:18:54;;;;;;;3.37;2.67;;;;;;;10.22;100.00;100607.13;5060007;28;20201;-70
2022/10/25 05:21:21;;;;;;;4.23;3.00;;;;;;;10.28;100.00;100614.78;5060208;28;20279;-70
2022/10/25 05:23:47;;;;;;;7.13;2.70;;;;;;;10.32;100.00;100615.56;5057091;28;20240;-71
2022/10/25 05:26:17;;;;;;;5.40;2.37;;;;;;;10.39;100.00;100617.97;5056378;28;20602;-69
2022/10/25 05:28:45;;;;;;;8.77;2.60;;;;;;;10.43;100.00;100624.00;5063850;28;20202;-69
2022/10/25 05:31:14;;;;;;;4.77;2.80;;;;;;;10.45;100.00;100616.13;5057313;28;20279;-71
2022/10/25 05:33:40;;;;;;;3.90;2.47;;;;;;;10.46;100.00;100617.84;5062662;28;20229;-69
2022/10/25 05:36:07;;;;;;;7.03;2.83;;;;;;;10.41;100.00;100623.16;5057484;28;20202;-70
2022/10/25 05:38:33;;;;;;;4.13;2.90;;;;;;;10.35;100.00;100621.56;5058741;28;20205;-71
2022/10/25 05:41:00;;;;;;;4.70;2.63;;;;;;;10.33;100.00;100612.94;5064027;28;20201;-71
2022/10/25 05:43:29;;;;;;;4.83;2.50;;;;;;;10.26;100.00;100624.38;5055487;28;20220;-71
2022/10/25 05:46:02;;;;;;;3.20;2.57;;;;;;;10.27;100.00;100625.22;5062792;28;20215;-68
2022/10/25 05:48:29;;;;;;;4.30;2.83;;;;;;;10.26;100.00;100624.38;5064033;28;20203;-70
2022/10/25 05:51:07;;;;;;;6.40;2.53;;;;;;;10.32;100.00;100624.25;5057600;28;20200;-71
2022/10/25 05:53:34;;;;;;;4.03;2.33;;;;;;;10.35;100.00;100626.78;5062933;28;20227;-70
2022/10/25 05:56:00;;;;;;;4.97;2.53;;;;;;;10.35;100.00;100642.41;5060502;28;20670;-70
2022/10/25 05:58:28;;;;;;;3.60;2.73;;;;;;;10.39;100.00;100641.44;5063112;28;20689;-70
2022/10/25 06:00:58;;;;;;;5.03;2.83;;;;;;;10.45;100.00;100639.56;5060539;28;20190;-71
2022/10/25 06:03:24;;;;;;;4.17;2.87;;;;;;;10.49;100.00;100639.47;5058754;28;20346;-70
2022/10/25 06:05:51;;;;;;;5.37;2.60;;;;;;;10.52;100.00;100648.97;5059847;28;20218;-71
2022/10/25 06:08:17;;;;;;;6.80;2.80;;;;;;;10.52;100.00;100656.78;5053723;28;20201;-71
2022/10/25 06:10:43;;;;;;;3.00;2.43;;;;;;;10.55;100.00;100648.88;5062207;28;20190;-71
2022/10/25 06:13:10;;;;;;;3.57;2.77;;;;;;;10.59;100.00;100658.34;5062071;28;20229;-69
2022/10/25 06:15:38;;;;;;;6.20;2.63;;;;;;;10.64;100.00;100656.47;5063023;28;20221;-71
2022/10/25 06:18:04;;;;;;;3.23;2.60;;;;;;;10.68;100.00;100658.09;5063671;28;20691;-71
2022/10/25 06:20:30;;;;;;;3.03;2.73;;;;;;;10.76;100.00;100661.38;5059541;28;20208;-71
2022/10/25 06:22:57;;;;;;;6.10;2.50;;;;;;;10.79;100.00;100665.66;5064726;28;20702;-70
2022/10/25 06:25:23;;;;;;;5.40;2.53;;;;;;;10.86;100.00;100676.78;5059167;28;20564;-71
2022/10/25 06:27:50;;;;;;;8.87;3.00;;;;;;;10.88;100.00;100662.78;5064302;28;20229;-70
2022/10/25 06:30:16;;;;;;;3.73;2.83;;;;;;;11.00;100.00;100685.09;5060836;28;20292;-71
2022/10/25 06:32:44;;;;;;;3.03;2.57;;;;;;;11.12;100.00;100676.91;5062700;28;20530;-69
2022/10/25 06:35:10;;;;;;;2.70;2.50;;;;;;;11.22;100.00;100681.88;5057908;28;20209;-70
2022/10/25 06:37:37;;;;;;;4.83;2.90;;;;;;;11.30;100.00;100682.53;5059684;28;20206;-71
2022/10/25 06:40:04;;;;;;;4.60;2.90;;;;;;;11.39;100.00;100686.63;5062799;28;20204;-71
2022/10/25 06:42:30;;;;;;;6.20;3.00;;;;;;;11.46;100.00;100694.25;5061890;28;20685;-71
2022/10/25 06:44:58;;;;;;;9.93;3.27;;;;;;;11.55;100.00;100690.50;5059614;28;20202;-70
2022/10/25 06:47:24;;;;;;;6.13;3.23;;;;;;;11.63;100.00;100680.69;5057515;28;20644;-73
2022/10/25 06:49:51;;;;;;;6.20;3.10;;;;;;;11.68;100.00;100689.25;5056855;28;20202;-73
2022/10/25 06:52:18;;;;;;;3.30;3.00;;;;;;;11.75;100.00;100696.00;5060230;28;20241;-69
2022/10/25 06:54:44;;;;;;;5.90;3.20;;;;;;;11.83;100.00;100695.75;5059130;28;20238;-71
2022/10/25 06:57:11;;;;;;;4.67;3.00;;;;;;;11.91;100.00;100699.03;5058595;28;20198;-68
2022/10/25 06:59:37;;;;;;;4.00;3.13;;;;;;;11.96;100.00;100700.66;5057559;28;20210;-71
2022/10/25 07:02:03;;;;;;;5.20;2.80;;;;;;;11.97;100.00;100699.75;5059581;28;20768;-71
2022/10/25 07:04:31;;;;;;;6.33;3.30;;;;;;;11.98;100.00;100710.16;5053662;28;20373;-71
2022/10/25 07:06:59;;;;;;;3.33;2.50;;;;;;;12.00;100.00;100708.38;5059273;28;20225;-71
2022/10/25 07:09:26;;;;;;;7.23;3.07;;;;;;;12.05;100.00;100711.69;5062223;28;20256;-70
2022/10/25 07:11:52;;;;;;;3.23;2.67;;;;;;;12.12;100.00;100714.97;5061665;28;20202;-70
2022/10/25 07:14:18;;;;;;;2.90;2.23;;;;;;;12.25;100.00;100711.06;5056781;28;20226;-71
2022/10/25 07:16:45;;;;;;;5.87;2.27;;;;;;;12.40;100.00;100712.34;5053078;28;20355;-70
2022/10/25 07:19:11;;;;;;;7.20;2.40;;;;;;;12.55;100.00;100710.13;5054266;28;20206;-71
2022/10/25 07:21:37;;;;;;;4.87;2.87;;;;;;;12.70;100.00;100712.25;5061627;28;20578;-70
2022/10/25 07:24:07;;;;;;;3.47;2.30;;;;;;;12.78;100.00;100725.91;5051622;28;20571;-71
2022/10/25 07:26:34;;;;;;;3.03;1.93;;;;;;;12.82;100.00;100721.41;5065533;28;20212;-71
2022/10/25 07:29:02;;;;;;;2.77;2.13;;;;;;;12.84;100.00;100723.09;5069917;28;20217;-71
2022/10/25 07:31:30;;;;;;;3.43;1.90;;;;;;;12.85;100.00;100713.47;5057518;28;20571;-70
2022/10/25 07:33:58;;;;;;;2.17;1.83;;;;;;;12.88;100.00;100722.06;5060809;28;20224;-70
2022/10/25 07:36:25;;;;;;;4.93;1.83;;;;;;;12.91;100.00;100713.28;5056638;28;20270;-69
2022/10/25 07:38:51;;;;;;;3.77;1.63;;;;;;;12.97;100.00;100720.91;5057887;28;20363;-71
2022/10/25 07:41:19;;;;;;;2.53;1.47;;;;;;;13.04;100.00;100725.00;5058965;28;20577;-71
2022/10/25 07:43:45;;;;;;;4.70;1.27;;;;;;;13.09;100.00;100727.47;5059696;28;20317;-70
2022/10/25 07:46:12;;;;;;;4.13;1.27;;;;;;;13.11;100.00;100736.13;5061001;28;20198;-71
2022/10/25 07:48:39;;;;;;;1.37;1.20;;;;;;;13.16;100.00;100733.34;5051484;28;20228;-71
2022/10/25 07:51:07;;;;;;;2.27;1.70;;;;;;;13.18;100.00;100731.53;5064879;28;20662;-71
2022/10/25 07:53:33;;;;;;;1.27;1.13;;;;;;;13.20;100.00;100732.34;5058363;28;20215;-70
2022/10/25 07:56:00;;;;;;;1.07;1.00;;;;;;;13.24;100.00;100740.03;5068454;28;20214;-71
2022/10/25 07:58:28;;;;;;;1.93;1.10;;;;;;;13.24;100.00;100737.41;5058275;28;20202;-72
2022/10/25 08:01:00;;;;;;;1.60;1.10;;;;;;;13.26;100.00;100737.34;5067082;28;20230;-71
2022/10/25 08:03:27;;;;;;;1.20;0.97;;;;;;;13.30;100.00;100745.94;5061559;28;20340;-71
2022/10/25 08:05:54;;;;;;;1.43;1.00;;;;;;;13.30;100.00;100744.19;5048951;28;20225;-71
2022/10/25 08:08:22;;;;;;;2.40;1.13;;;;;;;13.34;100.00;100752.81;5067958;28;20276;-71
2022/10/25 08:10:49;;;;;;;1.90;1.00;;;;;;;13.36;100.00;100751.00;5064121;28;20206;-71
2022/10/25 08:13:15;;;;;;;2.80;1.30;;;;;;;13.33;100.00;100741.50;5063563;28;20274;-71
2022/10/25 08:15:49;;;;;;;3.70;1.20;;;;;;;13.36;100.00;100749.22;5062236;28;20648;-70
2022/10/25 08:18:15;;;;;;;3.20;1.20;;;;;;;13.41;100.00;100755.16;5075500;28;20236;-71
2022/10/25 08:20:42;;;;;;;2.27;1.00;;;;;;;13.46;100.00;100759.41;5059788;28;20565;-71
2022/10/25 08:23:08;;;;;;;1.97;1.20;;;;;;;13.51;100.00;100754.81;5066273;28;20231;-71
2022/10/25 08:25:34;;;;;;;1.03;0.93;;;;;;;13.53;100.00;100758.25;5067955;28;20199;-72
2022/10/25 08:28:02;;;;;;;2.63;1.10;;;;;;;13.56;100.00;100756.38;5065983;28;20233;-71
2022/10/25 08:30:29;;;;;;;1.57;1.17;;;;;;;13.59;100.00;100761.50;5061680;28;20203;-71
2022/10/25 08:32:57;;;;;;;1.70;1.20;;;;;;;13.62;100.00;100758.78;5064819;28;20218;-71
2022/10/25 08:35:23;;;;;;;1.50;1.23;;;;;;;13.70;100.00;100757.63;5064029;28;20879;-70
2022/10/25 08:37:49;;;;;;;1.37;1.17;;;;;;;13.72;100.00;100761.91;5069041;28;20194;-71
2022/10/25 08:40:19;;;;;;;3.03;1.63;;;;;;;13.75;100.00;100760.94;5061093;28;20270;-71
2022/10/25 08:43:05;;;;;;;1.13;1.00;;;;;;;13.75;100.00;100766.16;5066967;28;20226;-70
2022/10/25 08:45:37;;;;;;;3.93;1.10;;;;;;;13.86;100.00;100769.28;5065381;28;20195;-71
2022/10/25 08:48:11;;;;;;;1.13;1.03;;;;;;;13.93;100.00;100772.50;5072436;28;20214;-70
2022/10/25 08:50:43;;;;;;;1.70;1.47;;;;;;;13.90;100.00;100767.38;5059244;28;20193;-70
2022/10/25 08:53:16;;;;;;;1.97;1.20;;;;;;;13.88;100.00;100770.06;5063444;28;20228;-70
2022/10/25 08:55:43;;;;;;;1.67;1.13;;;;;;;13.86;100.00;100765.78;5071575;28;20227;-70
2022/10/25 08:58:16;;;;;;;2.00;1.23;;;;;;;13.92;100.00;100771.63;5055134;28;20229;-70
2022/10/25 09:00:45;;;;;;;2.30;1.20;;;;;;;14.01;100.00;100759.94;5068141;28;20599;-70
2022/10/25 09:03:16;;;;;;;4.63;1.50;;;;;;;14.14;100.00;100762.94;5059952;28;20227;-70
2022/10/25 09:05:58;;;;;;;2.50;1.30;;;;;;;14.15;100.00;100759.44;5056379;28;20218;-70
2022/10/25 09:08:39;;;;;;;1.70;1.17;;;;;;;14.15;100.00;100768.13;5067610;28;20210;-70
2022/10/25 09:11:16;;;;;;;5.70;1.40;;;;;;;14.14;100.00;100774.31;5067749;28;20202;-71
2022/10/25 09:13:50;;;;;;;1.33;1.00;;;;;;;14.26;100.00;100772.97;5059747;28;20242;-70
2022/10/25 09:16:18;;;;;;;3.70;1.40;;;;;;;14.49;100.00;100779.06;5069598;28;20654;-70
2022/10/25 09:18:51;;;;;;;1.70;1.40;;;;;;;14.58;100.00;100774.34;5069404;28;20228;-71
2022/10/25 09:21:21;;;;;;;3.73;2.60;;;;;;;14.67;100.00;100781.00;5064867;28;20202;-70
2022/10/25 09:23:58;;;;;;;4.70;2.40;;;;;;;14.76;100.00;100779.78;5065035;28;20241;-70
2022/10/25 09:26:41;;;;;;;2.67;1.53;;;;;;;14.84;100.00;100784.69;5075098;28;20203;-70
2022/10/25 09:29:21;;;;;;;1.90;1.17;;;;;;;14.77;100.00;100786.72;5077735;28;20199;-70
2022/10/25 09:31:50;;;;;;;3.47;2.17;;;;;;;14.65;100.00;100793.34;5062864;28;20201;-70
2022/10/25 09:34:22;;;;;;;2.13;0.90;;;;;;;14.67;100.00;100799.38;5071586;28;20236;-70
2022/10/25 09:36:54;;;;;;;1.13;1.03;;;;;;;14.54;100.00;100798.94;5081835;28;20209;-70
2022/10/25 09:39:25;;;;;;;3.77;2.17;;;;;;;14.54;100.00;100796.31;5064073;28;20600;-70
2022/10/25 09:41:53;;;;;;;2.87;1.30;;;;;;;14.57;100.00;100804.09;5064180;28;20198;-70
2022/10/25 09:44:37;;;;;;;4.03;1.60;;;;;;;14.64;100.00;100804.72;5068537;28;20220;-70
2022/10/25 09:47:14;;;;;;;1.77;1.07;;;;;;;14.62;100.00;100810.97;5068203;28;20206;-70
2022/10/25 09:49:49;;;;;;;0.87;0.87;;;;;;;14.67;100.00;100817.75;5067708;28;20344;-70
2022/10/25 09:52:22;;;;;;;1.90;1.07;;;;;;;14.68;100.00;100818.59;5057793;28;20591;-70
2022/10/25 09:54:53;;;;;;;1.23;0.80;;;;;;;14.71;100.00;100814.06;5066611;28;20686;-70
2022/10/25 09:57:19;;;;;;;11.07;5.47;;;;;;;14.68;100.00;100816.81;5063974;28;20559;-70
2022/10/25 09:59:49;;;;;;;9.00;4.87;;;;;;;14.70;100.00;100817.59;5065675;28;20572;-70
2022/10/25 10:02:22;;;;;;;5.83;2.97;;;;;;;14.74;100.00;100819.19;5062289;28;20290;-70
2022/10/25 10:04:51;;;;;;;1.93;1.03;;;;;;;14.80;100.00;100828.59;5064649;28;20237;-70
2022/10/25 10:07:21;;;;;;;1.47;0.87;;;;;;;14.79;100.00;100826.03;5065316;28;20254;-70
2022/10/25 10:09:50;;;;;;;3.00;0.93;;;;;;;14.73;100.00;100827.13;5055390;28;20198;-70
2022/10/25 10:12:22;;;;;;;1.87;1.00;;;;;;;14.69;100.00;100822.94;5063891;28;20288;-70
2022/10/25 10:14:57;;;;;;;2.60;0.83;;;;;;;14.74;100.00;100819.19;5055328;28;20196;-70
2022/10/25 10:17:24;;;;;;;0.80;0.77;;;;;;;14.76;100.00;100825.22;5071044;28;20614;-70
2022/10/25 10:20:12;;;;;;;2.90;1.10;;;;;;;14.67;100.00;100817.75;5066567;28;20273;-70
2022/10/25 10:22:46;;;;;;;3.20;0.87;;;;;;;14.68;100.00;100818.59;5056262;28;20879;-70
2022/10/25 10:25:18;;;;;;;1.73;0.77;;;;;;;14.77;100.00;100820.81;5054980;28;20670;-70
2022/10/25 10:27:47;;;;;;;0.90;0.80;;;;;;;14.78;100.00;100809.44;5056047;28;20206;-70
2022/10/25 10:30:22;;;;;;;1.57;0.97;;;;;;;14.87;100.00;100810.81;5059687;28;20570;-70
2022/10/25 10:32:53;;;;;;;3.10;1.10;;;;;;;15.00;100.00;100806.75;5058029;28;20644;-70
2022/10/25 10:35:30;;;;;;;3.37;0.90;;;;;;;15.03;100.00;100814.50;5068981;28;20194;-70
2022/10/25 10:38:22;;;;;;;0.83;0.83;;;;;;;15.03;100.00;100811.03;5059317;28;20199;-70
2022/10/25 10:40:49;;;;;;;3.00;0.90;;;;;;;15.14;100.00;100820.19;5068742;28;20447;-70
2022/10/25 10:43:23;;;;;;;0.77;0.60;;;;;;;15.12;100.00;100814.13;5060316;28;20686;-70
2022/10/25 10:45:51;;;;;;;1.33;0.70;;;;;;;15.18;100.00;100812.16;5061067;28;20207;-70
2022/10/25 10:48:19;;;;;;;1.37;0.80;;;;;;;15.28;100.00;100808.22;5064324;28;20217;-70
2022/10/25 10:50:50;;;;;;;3.63;0.77;;;;;;;15.39;100.00;100816.50;5065584;28;20240;-70
2022/10/25 10:53:20;;;;;;;3.03;0.90;;;;;;;15.47;100.00;100818.81;5057095;28;20222;-70
2022/10/25 10:55:49;;;;;;;1.90;0.70;;;;;;;15.52;100.00;100816.81;5055838;28;20484;-70
2022/10/25 10:58:17;;;;;;;1.10;0.70;;;;;;;15.58;100.00;100824.44;5063720;28;20190;-70
2022/10/25 11:00:49;;;;;;;3.13;1.10;;;;;;;15.61;100.00;100828.72;5060061;28;20563;-70
2022/10/25 11:03:38;;;;;;;0.80;0.70;;;;;;;15.71;100.00;100830.03;5064335;28;20227;-70
2022/10/25 11:06:12;;;;;;;2.20;0.97;;;;;;;15.75;100.00;100830.75;5066724;28;20200;-70
2022/10/25 11:08:39;;;;;;;1.30;0.70;;;;;;;15.75;100.00;100833.41;5060228;28;20222;-70
2022/10/25 11:11:13;;;;;;;1.40;0.70;;;;;;;15.90;100.00;100825.69;5057247;28;20200;-70
2022/10/25 11:13:45;;;;;;;2.17;0.90;;;;;;;15.95;100.00;100827.22;5059536;28;20212;-70
2022/10/25 11:16:28;;;;;;;1.43;0.70;;;;;;;15.98;100.00;100827.94;5060282;28;20194;-70
2022/10/25 11:19:26;;;;;;;0.90;0.80;;;;;;;15.85;100.00;100826.81;5062192;28;20198;-70
2022/10/25 11:22:17;;;;;;;2.43;0.97;;;;;;;15.72;100.00;100834.34;5065406;28;20195;-70
2022/10/25 11:24:55;;;;;;;3.73;1.10;;;;;;;15.73;100.00;100846.56;5061350;28;20215;-70
2022/10/25 11:27:32;;;;;;;2.10;0.80;;;;;;;15.73;100.00;100843.09;5055054;28;20198;-70